createdAt,value
2015-03-16T07:39:13.234Z,38570
2015-03-16T07:39:23.797Z,38571
2015-03-16T07:39:35.078Z,38515
2015-03-16T07:39:45.625Z,38822
2015-03-16T07:39:56.156Z,39328
2015-03-16T07:40:06.627Z,39572
2015-03-16T07:40:17.127Z,39858
2015-03-16T07:40:27.643Z,40277
2015-03-16T07:40:38.564Z,40716
2015-03-16T07:40:49.049Z,41233
2015-03-16T07:40:59.564Z,41828
2015-03-16T07:41:10.113Z,41857
2015-03-16T07:41:20.645Z,41902
2015-03-16T07:41:31.145Z,42732
2015-03-16T07:41:41.707Z,44359
2015-03-16T07:41:52.223Z,47820
2015-03-16T07:42:02.738Z,51258
2015-03-16T07:42:13.272Z,52851
2015-03-16T07:42:23.834Z,51592
2015-03-16T07:42:34.365Z,50910
2015-03-16T07:42:44.912Z,51760
2015-03-16T07:42:55.443Z,53744
2015-03-16T07:43:05.945Z,56693
2015-03-16T07:43:16.492Z,58467
2015-03-16T07:43:27.008Z,59710
2015-03-16T07:43:37.555Z,60162
2015-03-16T07:43:48.086Z,61824
2015-03-16T07:43:58.617Z,59779
2015-03-16T07:44:09.089Z,55538
2015-03-16T07:44:19.573Z,52481
2015-03-16T07:44:30.120Z,52285
2015-03-16T07:44:40.683Z,52725
2015-03-16T07:44:51.308Z,52072
2015-03-16T07:45:01.777Z,51523
2015-03-16T07:45:12.966Z,50935
2015-03-16T07:45:23.497Z,50663
2015-03-16T07:45:34.154Z,50137
2015-03-16T07:45:44.654Z,49797
2015-03-16T07:45:55.200Z,51119
2015-03-16T07:46:05.716Z,52032
2015-03-16T07:46:16.249Z,51886
2015-03-16T07:46:26.765Z,51078
2015-03-16T07:46:37.312Z,50848
2015-03-16T07:46:47.859Z,51676
2015-03-16T07:46:58.406Z,53795
2015-03-16T07:47:08.924Z,54618
2015-03-16T07:47:19.455Z,53906
2015-03-16T07:47:29.987Z,52566
2015-03-16T07:47:41.049Z,49544
2015-03-16T07:47:51.580Z,47990
2015-03-16T07:48:02.080Z,48149
2015-03-16T07:48:12.599Z,49346
2015-03-16T07:48:23.115Z,50238
2015-03-16T07:48:33.646Z,51131
2015-03-16T07:48:44.162Z,49790
2015-03-16T07:48:54.677Z,47462
2015-03-16T07:49:05.208Z,45662
2015-03-16T07:49:15.742Z,44911
2015-03-16T07:49:26.304Z,44539
2015-03-16T07:49:37.367Z,44421
2015-03-16T07:49:47.882Z,44165
2015-03-16T07:49:58.445Z,44002
2015-03-16T07:50:09.009Z,43874
2015-03-16T07:50:19.525Z,43816
2015-03-16T07:50:30.072Z,43576
2015-03-16T07:50:40.603Z,43324
2015-03-16T07:50:51.166Z,43056
2015-03-16T07:51:01.681Z,42998
2015-03-16T07:51:12.200Z,42898
2015-03-16T07:51:22.731Z,42887
2015-03-16T07:51:33.262Z,42898
2015-03-16T07:51:43.794Z,43132
2015-03-16T07:51:54.762Z,43187
2015-03-16T07:52:05.512Z,43234
2015-03-16T07:52:16.123Z,43234
2015-03-16T07:52:26.654Z,43327
2015-03-16T07:52:37.201Z,43330
2015-03-16T07:52:47.763Z,43490
2015-03-16T07:52:58.295Z,43411
2015-03-16T07:53:08.810Z,43475
2015-03-16T07:53:19.937Z,43452
2015-03-16T07:53:30.468Z,43396
2015-03-16T07:53:41.125Z,43359
2015-03-16T07:53:51.656Z,43451
2015-03-16T07:54:02.187Z,43507
2015-03-16T07:54:12.768Z,43455
2015-03-16T07:54:23.362Z,43374
2015-03-16T07:54:33.878Z,43405
2015-03-16T07:54:44.425Z,43331
2015-03-16T07:54:55.003Z,43372
2015-03-16T07:55:05.550Z,43406
2015-03-16T07:55:16.068Z,43501
2015-03-16T07:55:26.615Z,43346
2015-03-16T07:56:28.914Z,42219
2015-03-16T07:56:39.476Z,41936
2015-03-16T07:56:50.055Z,41700
2015-03-16T07:57:00.586Z,41394
2015-03-16T07:57:11.117Z,41064
2015-03-16T07:57:21.635Z,40780
2015-03-16T07:57:32.838Z,40418
2015-03-16T07:58:35.012Z,39178
2015-03-16T07:58:45.527Z,39099
2015-03-16T07:58:56.043Z,39000
2015-03-16T07:59:06.590Z,39081
2015-03-16T07:59:17.124Z,39152
2015-03-16T07:59:27.640Z,39201
2015-03-16T07:59:38.171Z,39397
2015-03-16T07:59:48.733Z,39698
2015-03-16T07:59:59.296Z,40023
2015-03-16T08:00:09.827Z,40526
2015-03-16T08:00:20.407Z,41116
2015-03-16T08:00:30.954Z,42133
2015-03-16T08:00:41.517Z,44048
2015-03-16T08:00:52.079Z,46445
2015-03-16T08:01:02.642Z,48759
2015-03-16T08:01:13.157Z,52055
2015-03-16T08:01:24.363Z,56255
2015-03-16T08:01:34.942Z,58615
2015-03-16T08:01:45.504Z,59997
2015-03-16T08:01:55.988Z,59069
2015-03-16T08:02:06.520Z,58424
2015-03-16T08:02:17.069Z,60230
2015-03-16T08:02:27.615Z,63127
2015-03-16T08:02:38.131Z,64811
2015-03-16T08:02:48.662Z,65599
2015-03-16T08:02:59.225Z,66427
2015-03-16T08:03:09.740Z,66066
2015-03-16T08:03:20.258Z,66874
2015-03-16T08:03:30.789Z,66260
2015-03-16T08:03:41.336Z,65246
2015-03-16T08:03:51.852Z,62500
2015-03-16T08:04:02.477Z,60198
2015-03-16T08:04:12.992Z,57674
2015-03-16T08:04:23.526Z,54758
2015-03-16T08:04:34.135Z,53010
2015-03-16T08:04:44.869Z,52548
2015-03-16T08:04:55.448Z,52454
2015-03-16T08:05:06.307Z,51661
2015-03-16T08:05:16.869Z,50531
2015-03-16T08:05:28.293Z,49344
2015-03-16T08:05:39.746Z,48415
2015-03-16T08:05:50.278Z,48207
2015-03-16T08:06:00.871Z,48404
2015-03-16T08:06:11.356Z,48950
2015-03-16T08:06:22.515Z,49913
2015-03-16T08:06:33.031Z,52080
2015-03-16T08:06:43.546Z,55674
2015-03-16T08:06:54.078Z,58798
2015-03-16T08:07:04.874Z,61488
2015-03-16T08:07:15.406Z,64975
2015-03-16T08:07:25.955Z,68561
2015-03-16T08:07:37.298Z,69226
2015-03-16T08:07:47.814Z,70571
2015-03-16T08:07:58.330Z,71827
2015-03-16T08:08:08.845Z,72060
2015-03-16T08:08:19.379Z,69637
2015-03-16T08:08:29.958Z,65869
2015-03-16T08:08:40.504Z,62486
2015-03-16T08:08:51.051Z,59768
2015-03-16T08:09:01.614Z,56158
2015-03-16T08:09:12.192Z,53957
2015-03-16T08:09:22.710Z,52585
2015-03-16T08:09:33.256Z,51129
2015-03-16T08:09:43.803Z,50151
2015-03-16T08:09:54.319Z,49817
2015-03-16T08:10:04.850Z,49401
2015-03-16T08:10:15.366Z,48596
2015-03-16T08:10:26.743Z,48244
2015-03-16T08:10:37.290Z,48117
2015-03-16T08:10:47.852Z,48329
2015-03-16T08:10:58.383Z,48465
2015-03-16T08:11:08.962Z,48177
2015-03-16T08:11:19.540Z,47699
2015-03-16T08:11:30.073Z,47357
2015-03-16T08:11:41.167Z,47486
2015-03-16T08:11:51.698Z,47421
2015-03-16T08:12:02.198Z,46923
2015-03-16T08:12:12.698Z,46548
2015-03-16T08:12:23.248Z,46529
2015-03-16T08:12:33.763Z,46871
2015-03-16T08:12:44.263Z,47434
2015-03-16T08:12:54.826Z,48428
2015-03-16T08:13:05.404Z,49191
2015-03-16T08:13:15.951Z,49318
2015-03-16T08:13:26.984Z,48642
2015-03-16T08:13:37.531Z,47614
2015-03-16T08:13:48.062Z,46782
2015-03-16T08:13:58.594Z,46389
2015-03-16T08:14:09.125Z,46338
2015-03-16T08:14:19.640Z,46479
2015-03-16T08:14:30.159Z,46595
2015-03-16T08:14:40.690Z,46224
2015-03-16T08:14:51.253Z,46863
2015-03-16T08:15:01.784Z,47424
2015-03-16T08:15:12.331Z,47517
2015-03-16T08:15:22.878Z,47234
2015-03-16T08:15:33.411Z,47204
2015-03-16T08:15:43.958Z,47064
2015-03-16T08:15:54.505Z,47061
2015-03-16T08:16:05.036Z,47064
2015-03-16T08:16:15.614Z,46294
2015-03-16T08:16:26.163Z,46944
2015-03-16T08:16:36.679Z,47071
2015-03-16T08:16:47.210Z,47112
2015-03-16T08:16:57.726Z,47205
2015-03-16T08:17:08.257Z,47168
2015-03-16T08:17:18.788Z,47093
2015-03-16T08:17:29.290Z,47231
2015-03-16T08:17:39.837Z,47137
2015-03-16T08:17:50.353Z,46901
2015-03-16T08:18:00.899Z,46469
2015-03-16T08:18:11.493Z,46179
2015-03-16T08:18:22.040Z,46338
2015-03-16T08:18:32.621Z,46551
2015-03-16T08:18:43.137Z,46956
2015-03-16T08:18:53.684Z,47396
2015-03-16T08:19:04.215Z,47987
2015-03-16T08:19:14.715Z,48542
2015-03-16T08:19:25.231Z,48195
2015-03-16T08:19:35.780Z,47221
2015-03-16T08:19:46.312Z,46305
2015-03-16T08:19:56.827Z,46079
2015-03-16T08:20:07.343Z,46272
2015-03-16T08:20:17.905Z,46348
2015-03-16T08:20:28.361Z,46612
2015-03-16T08:20:38.939Z,46859
2015-03-16T08:20:49.486Z,47090
2015-03-16T08:21:00.032Z,47839
2015-03-16T08:21:10.579Z,48431
2015-03-16T08:21:21.095Z,49117
2015-03-16T08:21:31.596Z,50092
2015-03-16T08:21:42.112Z,50807
2015-03-16T08:21:52.627Z,50775
2015-03-16T08:22:03.127Z,49873
2015-03-16T08:22:13.658Z,49116
2015-03-16T08:22:24.174Z,48371
2015-03-16T08:22:34.677Z,47622
2015-03-16T08:22:45.208Z,47150
2015-03-16T08:22:55.740Z,47101
2015-03-16T08:23:06.271Z,47017
2015-03-16T08:23:16.802Z,47215
2015-03-16T08:23:27.318Z,47605
2015-03-16T08:23:37.852Z,47405
2015-03-16T08:23:48.368Z,46886
2015-03-16T08:23:58.914Z,46431
2015-03-16T08:24:09.446Z,46053
2015-03-16T08:24:19.961Z,45730
2015-03-16T08:24:30.510Z,45096
2015-03-16T08:24:41.026Z,44680
2015-03-16T08:24:51.604Z,44304
2015-03-16T08:25:02.135Z,43984
2015-03-16T08:25:12.666Z,44012
2015-03-16T08:25:23.229Z,43888
2015-03-16T08:25:33.779Z,44198
2015-03-16T08:25:44.310Z,44563
2015-03-16T08:25:54.857Z,44996
2015-03-16T08:26:05.466Z,46210
2015-03-16T08:26:15.982Z,48994
2015-03-16T08:26:26.498Z,50797
2015-03-16T08:26:37.125Z,52131
2015-03-16T08:26:47.671Z,53970
2015-03-16T08:26:58.171Z,55781
2015-03-16T08:27:08.671Z,58767
2015-03-16T08:27:19.218Z,60576
2015-03-16T08:27:29.765Z,61468
2015-03-16T08:27:40.298Z,61449
2015-03-16T08:27:50.877Z,60611
2015-03-16T08:28:01.377Z,59726
2015-03-16T08:28:11.939Z,60657
2015-03-16T08:28:22.470Z,63936
2015-03-16T08:28:32.988Z,67572
2015-03-16T08:28:43.488Z,68817
2015-03-16T08:28:54.035Z,69862
2015-03-16T08:29:04.550Z,70180
2015-03-16T08:29:15.050Z,70535
2015-03-16T08:29:25.566Z,67654
2015-03-16T08:29:36.132Z,63364
2015-03-16T08:29:46.647Z,59664
2015-03-16T08:29:57.163Z,57226
2015-03-16T08:30:07.725Z,56337
2015-03-16T08:30:18.288Z,57588
2015-03-16T08:30:28.835Z,60528
2015-03-16T08:30:39.352Z,62092
2015-03-16T08:30:49.884Z,63522
2015-03-16T08:31:00.493Z,64028
2015-03-16T08:31:11.040Z,62717
2015-03-16T08:31:21.649Z,60798
2015-03-16T08:31:32.761Z,59883
2015-03-16T08:31:43.839Z,60665
2015-03-16T08:31:54.354Z,61377
2015-03-16T08:32:04.901Z,62425
2015-03-16T08:32:15.448Z,62748
2015-03-16T08:32:25.964Z,63938
2015-03-16T08:32:36.498Z,65117
2015-03-16T08:32:47.014Z,66193
2015-03-16T08:32:57.545Z,64328
2015-03-16T08:33:08.092Z,63395
2015-03-16T08:33:18.639Z,63917
2015-03-16T08:33:29.201Z,63524
2015-03-16T08:33:39.811Z,62774
2015-03-16T08:33:50.327Z,60345
2015-03-16T08:34:00.858Z,59480
2015-03-16T08:34:11.296Z,59236
2015-03-16T08:34:21.811Z,58771
2015-03-16T08:34:32.390Z,57841
2015-03-16T08:34:42.908Z,57023
2015-03-16T08:34:53.439Z,56295
2015-03-16T08:35:04.018Z,56025
2015-03-16T08:35:14.564Z,55642
2015-03-16T08:35:25.080Z,55051
2015-03-16T08:35:35.627Z,53138
2015-03-16T08:35:46.146Z,51456
2015-03-16T08:35:56.724Z,50539
2015-03-16T08:36:07.286Z,50497
2015-03-16T08:36:18.567Z,50679
2015-03-16T08:36:29.083Z,50885
2015-03-16T08:36:39.569Z,51277
2015-03-16T08:36:50.069Z,51573
2015-03-16T08:37:00.585Z,51767
2015-03-16T08:37:11.148Z,52993
2015-03-16T08:37:21.679Z,54653
2015-03-16T08:37:32.148Z,54209
2015-03-16T08:37:43.103Z,54738
2015-03-16T08:37:53.634Z,53793
2015-03-16T08:38:04.165Z,54332
2015-03-16T08:38:15.415Z,57040
2015-03-16T08:38:25.962Z,60820
2015-03-16T08:38:36.478Z,63173
2015-03-16T08:38:47.012Z,64734
2015-03-16T08:38:57.512Z,66398
2015-03-16T08:39:07.996Z,70079
2015-03-16T08:39:18.512Z,75134
2015-03-16T08:39:29.074Z,78655
2015-03-16T08:39:39.592Z,81723
2015-03-16T08:39:50.139Z,81406
2015-03-16T08:40:00.639Z,80279
2015-03-16T08:40:11.201Z,77686
2015-03-16T08:40:21.655Z,77342
2015-03-16T08:40:32.201Z,77104
2015-03-16T08:40:42.719Z,79091
2015-03-16T08:40:53.344Z,78610
2015-03-16T08:41:03.875Z,78805
2015-03-16T08:41:14.469Z,80167
2015-03-16T08:41:25.469Z,77317
2015-03-16T08:41:35.969Z,72329
2015-03-16T08:41:46.487Z,68185
2015-03-16T08:41:56.987Z,67069
2015-03-16T08:42:07.518Z,65739
2015-03-16T08:42:18.034Z,65797
2015-03-16T08:42:28.580Z,66263
2015-03-16T08:42:39.096Z,66912
2015-03-16T08:42:49.645Z,69183
2015-03-16T08:43:00.161Z,72979
2015-03-16T08:43:10.707Z,77826
2015-03-16T08:43:21.645Z,82333
2015-03-16T08:43:32.161Z,84103
2015-03-16T08:43:43.164Z,82845
2015-03-16T08:43:54.382Z,82923
2015-03-16T08:44:04.929Z,84560
2015-03-16T08:44:15.476Z,196913
2015-03-16T08:44:26.007Z,196572
2015-03-16T08:44:36.539Z,196715
2015-03-16T08:44:47.150Z,198040
2015-03-16T08:44:57.697Z,198033
2015-03-16T08:45:08.259Z,199031
2015-03-16T08:45:18.806Z,201415
2015-03-16T08:45:29.369Z,202043
2015-03-16T08:45:39.900Z,201454
2015-03-16T08:45:50.464Z,201801
2015-03-16T08:46:00.996Z,203651
2015-03-16T08:46:11.543Z,205197
2015-03-16T08:46:22.074Z,205207
2015-03-16T08:46:32.589Z,204205
2015-03-16T08:46:43.139Z,203487
2015-03-16T08:46:53.686Z,202258
2015-03-16T08:47:04.264Z,198781
2015-03-16T08:47:14.796Z,82533
2015-03-16T08:47:25.358Z,79625
2015-03-16T08:47:35.905Z,83144
2015-03-16T08:47:46.454Z,196689
2015-03-16T08:47:57.032Z,198824
2015-03-16T08:48:07.548Z,203305
2015-03-16T08:48:18.126Z,206719
2015-03-16T08:48:28.719Z,205479
2015-03-16T08:48:39.235Z,202307
2015-03-16T08:48:49.785Z,200940
2015-03-16T08:49:00.301Z,201382
2015-03-16T08:49:10.879Z,203337
2015-03-16T08:49:21.472Z,207002
2015-03-16T08:49:32.035Z,210999
2015-03-16T08:49:42.662Z,211007
2015-03-16T08:49:53.224Z,209981
2015-03-16T08:50:03.771Z,207778
2015-03-16T08:50:14.318Z,209519
2015-03-16T08:50:24.865Z,212133
2015-03-16T08:50:35.412Z,212257
2015-03-16T08:50:45.931Z,207195
2015-03-16T08:50:56.571Z,205261
2015-03-16T08:51:07.165Z,206379
2015-03-16T08:51:17.696Z,209119
2015-03-16T08:51:28.227Z,211321
2015-03-16T08:51:38.899Z,211111
2015-03-16T08:51:49.447Z,212346
2015-03-16T08:51:59.994Z,214521
2015-03-16T08:52:10.557Z,215130
2015-03-16T08:52:21.119Z,210429
2015-03-16T08:52:31.666Z,205193
2015-03-16T08:52:42.228Z,203374
2015-03-16T08:52:52.778Z,203531
2015-03-16T08:53:03.278Z,203340
2015-03-16T08:53:13.825Z,202516
2015-03-16T08:53:24.388Z,203430
2015-03-16T08:53:34.919Z,208811
2015-03-16T08:53:45.469Z,214224
2015-03-16T08:53:56.094Z,216823
2015-03-16T08:54:06.656Z,213461
2015-03-16T08:54:17.234Z,205243
2015-03-16T08:54:27.750Z,198812
2015-03-16T08:54:38.266Z,200398
2015-03-16T08:54:48.830Z,206246
2015-03-16T08:54:59.377Z,210012
2015-03-16T08:55:10.002Z,212706
2015-03-16T08:55:20.518Z,212900
2015-03-16T08:55:31.065Z,209022
2015-03-16T08:55:41.674Z,199433
2015-03-16T08:55:53.004Z,83693
2015-03-16T08:56:03.535Z,83425
2015-03-16T08:56:14.067Z,196049
2015-03-16T08:56:24.613Z,199362
2015-03-16T08:56:35.113Z,200577
2015-03-16T08:56:45.662Z,202140
2015-03-16T08:56:56.240Z,199718
2015-03-16T08:57:06.787Z,197510
2015-03-16T08:57:17.350Z,196285
2015-03-16T08:57:27.881Z,195843
2015-03-16T08:57:38.553Z,198668
2015-03-16T08:57:49.072Z,204377
2015-03-16T08:57:59.572Z,210047
2015-03-16T08:58:10.165Z,211587
2015-03-16T08:58:20.712Z,210355
2015-03-16T08:58:31.212Z,209595
2015-03-16T08:58:41.775Z,207506
2015-03-16T08:58:52.308Z,207850
2015-03-16T08:59:03.292Z,209723
2015-03-16T08:59:13.824Z,208439
2015-03-16T08:59:24.370Z,203511
2015-03-16T08:59:34.902Z,203046
2015-03-16T08:59:45.433Z,204605
2015-03-16T08:59:56.013Z,206903
2015-03-16T09:00:06.622Z,206461
2015-03-16T09:00:17.185Z,205163
2015-03-16T09:00:27.732Z,204400
2015-03-16T09:00:38.263Z,208425
2015-03-16T09:00:48.813Z,212466
2015-03-16T09:00:59.375Z,214143
2015-03-16T09:01:09.907Z,212052
2015-03-16T09:01:20.454Z,212290
2015-03-16T09:01:31.000Z,212514
2015-03-16T09:01:41.516Z,212137
2015-03-16T09:01:52.065Z,212065
2015-03-16T09:02:02.612Z,213751
2015-03-16T09:02:13.190Z,216601
2015-03-16T09:02:23.690Z,218277
2015-03-16T09:02:34.252Z,218259
2015-03-16T09:02:44.799Z,218158
2015-03-16T09:02:55.348Z,218740
2015-03-16T09:03:05.911Z,218889
2015-03-16T09:03:16.411Z,88
2015-03-16T09:03:26.911Z,67
2015-03-16T09:03:37.395Z,56
2015-03-16T09:03:47.929Z,261844
2015-03-16T09:03:58.461Z,261410
2015-03-16T09:04:08.992Z,261348
2015-03-16T09:04:19.539Z,261508
2015-03-16T09:04:30.117Z,261734
2015-03-16T09:04:40.695Z,261976
2015-03-16T09:04:51.166Z,66
2015-03-16T09:05:01.634Z,232
2015-03-16T09:05:12.103Z,302
2015-03-16T09:05:22.572Z,291
2015-03-16T09:05:33.072Z,456
2015-03-16T09:05:43.619Z,594
2015-03-16T09:05:54.183Z,645
2015-03-16T09:06:04.668Z,654
2015-03-16T09:06:15.168Z,648
2015-03-16T09:06:25.621Z,810
2015-03-16T09:06:36.168Z,982
2015-03-16T09:06:46.699Z,748
2015-03-16T09:06:57.186Z,379
2015-03-16T09:07:07.686Z,286
2015-03-16T09:07:18.233Z,377
2015-03-16T09:07:28.639Z,595
2015-03-16T09:07:39.171Z,441
2015-03-16T09:07:49.671Z,325
2015-03-16T09:08:00.219Z,347
2015-03-16T09:08:10.719Z,644
2015-03-16T09:08:21.297Z,447
2015-03-16T09:08:32.500Z,262115
2015-03-16T09:08:43.047Z,261730
2015-03-16T09:08:53.628Z,261938
2015-03-16T09:09:04.222Z,262096
2015-03-16T09:09:14.706Z,69
2015-03-16T09:09:25.972Z,77
2015-03-16T09:09:36.612Z,379
2015-03-16T09:09:47.128Z,533
2015-03-16T09:09:57.677Z,730
2015-03-16T09:10:08.224Z,1117
2015-03-16T09:10:18.770Z,1165
2015-03-16T09:10:29.317Z,788
2015-03-16T09:10:39.802Z,685
2015-03-16T09:10:50.349Z,976
2015-03-16T09:11:00.866Z,1330
2015-03-16T09:11:11.366Z,1462
2015-03-16T09:11:21.882Z,1383
2015-03-16T09:11:32.444Z,1289
2015-03-16T09:11:43.679Z,1347
2015-03-16T09:11:54.256Z,1275
2015-03-16T09:12:04.756Z,1274
2015-03-16T09:12:15.319Z,1259
2015-03-16T09:12:25.834Z,1078
2015-03-16T09:12:36.350Z,1182
2015-03-16T09:12:46.881Z,1062
2015-03-16T09:12:57.380Z,1288
2015-03-16T09:13:07.926Z,1340
2015-03-16T09:13:18.458Z,1185
2015-03-16T09:13:28.942Z,1081
2015-03-16T09:13:39.473Z,954
2015-03-16T09:13:49.926Z,878
2015-03-16T09:14:00.441Z,890
2015-03-16T09:14:10.941Z,1079
2015-03-16T09:14:21.441Z,1200
2015-03-16T09:14:31.957Z,1378
2015-03-16T09:14:42.863Z,1672
2015-03-16T09:14:53.393Z,1655
2015-03-16T09:15:03.940Z,1505
2015-03-16T09:15:14.440Z,1258
2015-03-16T09:15:24.955Z,1142
2015-03-16T09:15:35.487Z,1218
2015-03-16T09:15:45.987Z,1362
2015-03-16T09:15:56.549Z,1190
2015-03-16T09:16:07.033Z,775
2015-03-16T09:16:17.580Z,701
2015-03-16T09:16:28.080Z,595
2015-03-16T09:16:38.611Z,591
2015-03-16T09:16:49.111Z,717
2015-03-16T09:16:59.650Z,1051
2015-03-16T09:17:10.182Z,1251
2015-03-16T09:17:20.697Z,1047
2015-03-16T09:17:31.853Z,533
2015-03-16T09:17:42.338Z,610
2015-03-16T09:17:52.900Z,344
2015-03-16T09:18:03.375Z,717
2015-03-16T09:18:13.859Z,963
2015-03-16T09:18:24.391Z,1042
2015-03-16T09:18:34.859Z,918
2015-03-16T09:18:45.344Z,863
2015-03-16T09:18:55.851Z,947
2015-03-16T09:19:06.382Z,1018
2015-03-16T09:19:16.882Z,1018
2015-03-16T09:19:27.366Z,1261
2015-03-16T09:19:37.898Z,1576
2015-03-16T09:19:48.398Z,1866
2015-03-16T09:19:58.888Z,1750
2015-03-16T09:20:09.388Z,900
2015-03-16T09:20:19.888Z,213
2015-03-16T09:20:30.404Z,151
2015-03-16T09:20:40.904Z,145
2015-03-16T09:20:51.419Z,39
2015-03-16T09:21:01.973Z,262113
2015-03-16T09:21:12.504Z,262031
2015-03-16T09:21:23.051Z,262010
2015-03-16T09:21:33.661Z,262078
2015-03-16T09:21:44.239Z,262113
2015-03-16T09:21:54.833Z,262029
2015-03-16T09:22:05.414Z,262048
2015-03-16T09:22:16.632Z,262084
2015-03-16T09:22:27.398Z,23
2015-03-16T09:22:37.898Z,272
2015-03-16T09:22:48.367Z,329
2015-03-16T09:22:58.856Z,283
2015-03-16T09:23:09.372Z,252
2015-03-16T09:23:19.887Z,296
2015-03-16T09:23:30.356Z,295
2015-03-16T09:23:40.966Z,303
2015-03-16T09:23:51.450Z,360
2015-03-16T09:24:01.937Z,621
2015-03-16T09:24:12.422Z,817
2015-03-16T09:24:22.953Z,1039
2015-03-16T09:24:33.515Z,1224
2015-03-16T09:24:44.047Z,1300
2015-03-16T09:24:54.594Z,1148
2015-03-16T09:25:05.098Z,902
2015-03-16T09:25:15.629Z,818
2015-03-16T09:25:26.191Z,1015
2015-03-16T09:25:37.363Z,1339
2015-03-16T09:25:47.879Z,1596
2015-03-16T09:25:58.726Z,1821
2015-03-16T09:26:09.257Z,1815
2015-03-16T09:26:19.804Z,1410
2015-03-16T09:26:30.304Z,1508
2015-03-16T09:26:40.819Z,1342
2015-03-16T09:26:51.351Z,1205
2015-03-16T09:27:01.885Z,1220
2015-03-16T09:27:12.354Z,1187
2015-03-16T09:27:22.885Z,1287
2015-03-16T09:27:33.400Z,1450
2015-03-16T09:27:43.900Z,1877
2015-03-16T09:27:54.400Z,1890
2015-03-16T09:28:04.920Z,1715
2015-03-16T09:28:15.420Z,1484
2015-03-16T09:28:25.936Z,1474
2015-03-16T09:28:36.451Z,1635
2015-03-16T09:28:46.983Z,1761
2015-03-16T09:28:57.514Z,1629
2015-03-16T09:29:08.017Z,1433
2015-03-16T09:29:18.470Z,1305
2015-03-16T09:29:28.970Z,1229
2015-03-16T09:29:39.501Z,1094
2015-03-16T09:29:50.001Z,764
2015-03-16T09:30:00.535Z,661
2015-03-16T09:30:11.051Z,612
2015-03-16T09:30:21.551Z,443
2015-03-16T09:30:32.067Z,443
2015-03-16T09:30:42.567Z,516
2015-03-16T09:30:53.082Z,680
2015-03-16T09:31:03.617Z,814
2015-03-16T09:31:14.085Z,658
2015-03-16T09:31:24.601Z,605
2015-03-16T09:31:35.070Z,460
2015-03-16T09:31:45.570Z,140
2015-03-16T09:31:56.038Z,108
2015-03-16T09:32:06.526Z,405
2015-03-16T09:32:17.026Z,645
2015-03-16T09:32:27.526Z,521
2015-03-16T09:32:38.041Z,517
2015-03-16T09:32:48.588Z,867
2015-03-16T09:32:59.088Z,1210
2015-03-16T09:33:09.590Z,1137
2015-03-16T09:33:20.106Z,1044
2015-03-16T09:33:30.637Z,911
2015-03-16T09:33:41.747Z,491
2015-03-16T09:33:52.918Z,465
2015-03-16T09:34:03.452Z,366
2015-03-16T09:34:13.936Z,363
2015-03-16T09:34:24.405Z,633
2015-03-16T09:34:34.905Z,616
2015-03-16T09:34:45.467Z,306
2015-03-16T09:34:55.952Z,260
2015-03-16T09:35:06.454Z,209
2015-03-16T09:35:16.922Z,354
2015-03-16T09:35:27.438Z,312
2015-03-16T09:35:37.907Z,397
2015-03-16T09:35:48.376Z,118
2015-03-16T09:35:58.844Z,76
2015-03-16T09:36:09.410Z,262139
2015-03-16T09:36:19.941Z,40
2015-03-16T09:36:30.472Z,156
2015-03-16T09:36:41.004Z,306
2015-03-16T09:36:51.488Z,498
2015-03-16T09:37:02.050Z,801
2015-03-16T09:37:13.193Z,872
2015-03-16T09:37:23.771Z,496
2015-03-16T09:37:34.959Z,391
2015-03-16T09:37:45.412Z,521
2015-03-16T09:37:55.912Z,632
2015-03-16T09:38:06.398Z,341
2015-03-16T09:38:16.992Z,262117
2015-03-16T09:38:27.508Z,262056
2015-03-16T09:38:37.976Z,88
2015-03-16T09:38:48.476Z,253
2015-03-16T09:38:58.992Z,245
2015-03-16T09:39:09.636Z,261863
2015-03-16T09:39:20.151Z,261469
2015-03-16T09:39:30.682Z,261666
2015-03-16T09:39:41.245Z,78
2015-03-16T09:39:51.729Z,271
2015-03-16T09:40:02.261Z,285
2015-03-16T09:40:12.809Z,216
2015-03-16T09:40:23.294Z,426
2015-03-16T09:40:33.794Z,645
2015-03-16T09:40:44.278Z,746
2015-03-16T09:40:54.794Z,914
2015-03-16T09:41:05.325Z,1032
2015-03-16T09:41:15.874Z,1081
2015-03-16T09:41:26.405Z,1014
2015-03-16T09:41:37.343Z,1008
2015-03-16T09:41:47.905Z,551
2015-03-16T09:41:58.499Z,261323
2015-03-16T09:42:09.079Z,260332
2015-03-16T09:42:19.579Z,261482
2015-03-16T09:42:30.142Z,1138
2015-03-16T09:42:40.673Z,1867
2015-03-16T09:42:51.188Z,2192
2015-03-16T09:43:01.751Z,1937
2015-03-16T09:43:12.364Z,1886
2015-03-16T09:43:22.958Z,1742
2015-03-16T09:43:33.489Z,2126
2015-03-16T09:43:44.052Z,2534
2015-03-16T09:43:54.567Z,2594
2015-03-16T09:44:05.114Z,2688
2015-03-16T09:44:15.616Z,2592
2015-03-16T09:44:26.148Z,2037
2015-03-16T09:44:36.663Z,1568
2015-03-16T09:44:47.163Z,1930
2015-03-16T09:44:57.694Z,2274
2015-03-16T09:45:08.226Z,2347
2015-03-16T09:45:18.728Z,2147
2015-03-16T09:45:29.243Z,2119
2015-03-16T09:45:39.743Z,1829
2015-03-16T09:45:50.259Z,2462
2015-03-16T09:46:01.353Z,2884
2015-03-16T09:46:11.870Z,2710
2015-03-16T09:46:22.386Z,2351
2015-03-16T09:46:32.886Z,2437
2015-03-16T09:46:43.480Z,2399
2015-03-16T09:46:54.011Z,2933
2015-03-16T09:47:04.527Z,3253
2015-03-16T09:47:15.045Z,2646
2015-03-16T09:47:25.576Z,2408
2015-03-16T09:47:36.795Z,2420
2015-03-16T09:47:47.280Z,2167
2015-03-16T09:47:57.826Z,1614
2015-03-16T09:48:08.326Z,1040
2015-03-16T09:48:18.797Z,812
2015-03-16T09:48:29.313Z,1401
2015-03-16T09:48:39.813Z,1667
2015-03-16T09:48:50.297Z,621
2015-03-16T09:49:00.766Z,947
2015-03-16T09:49:11.268Z,2593
2015-03-16T09:49:21.784Z,2176
2015-03-16T09:49:32.346Z,261966
2015-03-16T09:49:43.612Z,260229
2015-03-16T09:49:54.143Z,260533
2015-03-16T09:50:04.627Z,261456
2015-03-16T09:50:15.099Z,313
2015-03-16T09:50:25.630Z,262009
2015-03-16T09:50:36.193Z,261182
2015-03-16T09:50:46.708Z,262053
2015-03-16T09:50:57.208Z,757
2015-03-16T09:51:07.693Z,829
2015-03-16T09:51:18.194Z,836
2015-03-16T09:51:28.709Z,970
2015-03-16T09:51:39.163Z,843
2015-03-16T09:51:49.772Z,1298
2015-03-16T09:52:00.288Z,2008
2015-03-16T09:52:11.447Z,2490
2015-03-16T09:52:21.962Z,2509
2015-03-16T09:52:32.462Z,2421
2015-03-16T09:52:42.947Z,2156
2015-03-16T09:52:53.447Z,1680
2015-03-16T09:53:03.978Z,1335
2015-03-16T09:53:14.496Z,1602
2015-03-16T09:53:25.011Z,1696
2015-03-16T09:53:35.949Z,1241
2015-03-16T09:53:46.433Z,56
2015-03-16T09:53:56.964Z,261530
2015-03-16T09:54:07.511Z,261849
2015-03-16T09:54:18.013Z,1184
2015-03-16T09:54:28.513Z,2071
2015-03-16T09:54:38.998Z,2309
2015-03-16T09:54:49.513Z,2519
2015-03-16T09:55:00.076Z,2573
2015-03-16T09:55:10.591Z,2567
2015-03-16T09:55:21.094Z,2190
2015-03-16T09:55:31.610Z,2488
2015-03-16T09:55:42.157Z,2543
2015-03-16T09:55:52.704Z,2509
2015-03-16T09:56:03.251Z,2349
2015-03-16T09:56:13.832Z,1991
2015-03-16T09:56:24.347Z,1466
2015-03-16T09:56:34.879Z,1730
2015-03-16T09:56:45.394Z,2325
2015-03-16T09:56:55.910Z,2509
2015-03-16T09:57:06.426Z,2322
2015-03-16T09:57:16.973Z,2142
2015-03-16T09:57:27.505Z,2206
2015-03-16T09:57:38.005Z,2139
2015-03-16T09:57:48.536Z,2138
2015-03-16T09:57:59.036Z,2237
2015-03-16T09:58:09.536Z,1931
2015-03-16T09:58:20.070Z,1619
2015-03-16T09:58:30.617Z,1437